Time;durP1;ratioP1;P1;durP2;ratioP2;P2;SDS_P1;SDS_P2;PMS_P1;PMS_P2;Temp;Humidity;BMP_temperature;BMP_pressure;BME280_temperature;BME280_humidity;BME280_pressure;Samples;Min_cycle;Max_cycle;Signal;HPM_P1;HPM_P2
2022/11/07 03:48:21;;;;;;;2.05;0.10;;;10.10;75.60;;;;;;4930430;23;88395;-78
2022/11/07 03:50:47;;;;;;;1.55;0.13;;;10.00;76.20;;;;;;4898952;28;86561;-78
2022/11/07 03:53:12;;;;;;;1.67;0.20;;;10.10;75.10;;;;;;4898527;28;86910;-78
2022/11/07 03:55:41;;;;;;;0.70;0.10;;;10.10;74.90;;;;;;4905754;28;86761;-79
2022/11/07 03:58:07;;;;;;;0.60;0.10;;;10.10;74.40;;;;;;4906146;28;86300;-81
2022/11/07 04:00:33;;;;;;;0.63;0.10;;;10.20;74.90;;;;;;4906666;28;87735;-79
2022/11/07 04:02:58;;;;;;;2.20;0.10;;;10.20;75.10;;;;;;4907207;28;86734;-81
2022/11/07 04:05:24;;;;;;;1.35;0.10;;;10.10;74.60;;;;;;4906557;28;86923;-80
2022/11/07 04:07:49;;;;;;;0.98;0.20;;;10.10;74.70;;;;;;4906894;28;86284;-79
2022/11/07 04:10:15;;;;;;;1.13;0.10;;;10.10;74.80;;;;;;4896284;28;88059;-80
2022/11/07 04:18:10;;;;;;;0.85;0.10;;;10.00;76.40;;;;;;4893982;28;86756;-80
2022/11/07 04:20:36;;;;;;;1.10;0.10;;;9.90;76.60;;;;;;4905156;28;87017;-80
2022/11/07 04:23:01;;;;;;;1.58;0.20;;;9.90;77.10;;;;;;4905176;28;86466;-79
2022/11/07 04:28:12;;;;;;;1.67;0.32;;;9.80;78.80;;;;;;4902071;28;85594;-80
2022/11/07 04:30:38;;;;;;;3.65;0.32;;;9.80;79.30;;;;;;4897249;28;87051;-80
2022/11/07 04:33:03;;;;;;;1.60;0.30;;;9.80;79.90;;;;;;4906205;28;87409;-80
2022/11/07 04:35:31;;;;;;;1.70;0.30;;;9.80;80.00;;;;;;4905903;28;87172;-79
2022/11/07 04:37:58;;;;;;;2.08;0.32;;;9.70;80.50;;;;;;4900691;28;86942;-79
2022/11/07 04:40:24;;;;;;;1.63;0.55;;;9.70;80.90;;;;;;4906184;28;86494;-80
2022/11/07 04:42:50;;;;;;;2.65;0.25;;;9.60;80.60;;;;;;4906085;28;86837;-80
2022/11/07 04:45:16;;;;;;;1.45;0.20;;;9.60;79.80;;;;;;4906218;28;86873;-79
2022/11/07 04:47:42;;;;;;;1.38;0.20;;;9.60;79.90;;;;;;4892499;28;86243;-80
2022/11/07 04:50:11;;;;;;;1.30;0.30;;;9.60;79.00;;;;;;4887348;28;87047;-79
2022/11/07 04:52:37;;;;;;;2.47;0.32;;;9.60;78.90;;;;;;4887024;28;86570;-79
2022/11/07 04:55:04;;;;;;;2.13;0.38;;;9.60;79.10;;;;;;4886982;28;86918;-79
2022/11/07 04:57:29;;;;;;;2.50;0.20;;;9.50;79.00;;;;;;4883236;28;86988;-80
2022/11/07 04:59:55;;;;;;;1.40;0.22;;;9.50;78.40;;;;;;4884254;28;87750;-79
2022/11/07 05:02:23;;;;;;;1.85;0.20;;;9.50;78.30;;;;;;4884579;28;87192;-81
2022/11/07 05:04:49;;;;;;;1.50;0.20;;;9.50;77.80;;;;;;4887215;28;86201;-80
2022/11/07 05:07:14;;;;;;;1.30;0.20;;;9.50;77.90;;;;;;4880359;28;86950;-80
2022/11/07 05:09:40;;;;;;;0.80;0.10;;;9.50;78.00;;;;;;4878577;28;86516;-82
2022/11/07 05:12:06;;;;;;;0.70;0.10;;;9.50;75.90;;;;;;4884938;28;86971;-78
2022/11/07 05:14:31;;;;;;;0.45;0.10;;;9.60;76.10;;;;;;4886339;28;86715;-80
2022/11/07 05:16:57;;;;;;;0.47;0.10;;;9.60;75.90;;;;;;4886998;28;85605;-78
2022/11/07 05:19:23;;;;;;;1.40;0.10;;;9.60;76.00;;;;;;4886249;28;87226;-80
2022/11/07 05:23:11;;;;;;;3.70;0.10;;;9.60;74.90;;;;;;4882061;28;87117;-78
2022/11/07 05:24:34;;;;;;;1.45;0.10;;;9.70;75.30;;;;;;4879177;28;87446;-78
2022/11/07 05:27:00;;;;;;;0.68;0.10;;;9.70;74.30;;;;;;4886347;28;86257;-78
2022/11/07 05:29:26;;;;;;;1.60;0.10;;;9.70;73.60;;;;;;4886483;28;86745;-80
2022/11/07 05:31:51;;;;;;;0.70;0.10;;;9.80;73.20;;;;;;4885538;28;87477;-81
2022/11/07 05:34:17;;;;;;;1.85;0.00;;;9.80;72.30;;;;;;4886863;28;86521;-81
2022/11/07 05:36:42;;;;;;;0.82;0.05;;;9.80;71.50;;;;;;4882349;28;87092;-82
2022/11/07 05:39:08;;;;;;;0.55;0.00;;;10.00;70.30;;;;;;4885956;28;88486;-81
2022/11/07 05:41:35;;;;;;;1.35;0.10;;;10.10;70.00;;;;;;4879225;28;86765;-81
2022/11/07 05:44:01;;;;;;;0.75;0.00;;;10.10;70.80;;;;;;4875964;28;86528;-83
2022/11/07 05:46:26;;;;;;;0.68;0.10;;;10.10;70.30;;;;;;4885826;28;86727;-81
2022/11/07 05:48:52;;;;;;;0.50;0.00;;;10.00;71.30;;;;;;4884833;28;88188;-79
2022/11/07 05:51:18;;;;;;;1.65;0.00;;;10.00;71.40;;;;;;4885841;28;87284;-81
2022/11/07 05:53:44;;;;;;;0.98;0.10;;;10.00;70.70;;;;;;4885265;28;86772;-82
2022/11/07 05:56:09;;;;;;;1.85;0.10;;;10.00;70.80;;;;;;4885965;28;86323;-82
2022/11/07 05:58:35;;;;;;;0.40;0.00;;;10.00;70.70;;;;;;4884985;28;87049;-81
2022/11/07 06:01:05;;;;;;;0.60;0.10;;;10.00;70.60;;;;;;4878465;28;86966;-81
2022/11/07 06:03:31;;;;;;;4.32;0.10;;;10.00;70.80;;;;;;4873699;28;86994;-81
2022/11/07 06:05:57;;;;;;;1.25;0.10;;;10.00;70.80;;;;;;4882337;28;85500;-81
2022/11/07 06:08:23;;;;;;;0.40;0.00;;;10.00;70.90;;;;;;4884192;28;86425;-85
2022/11/07 06:10:48;;;;;;;1.05;0.10;;;10.00;72.00;;;;;;4880173;28;87149;-81
2022/11/07 06:13:15;;;;;;;0.90;0.10;;;9.90;72.30;;;;;;4877238;28;87951;-82
2022/11/07 06:15:42;;;;;;;1.25;0.10;;;9.90;73.10;;;;;;4881393;28;86646;-81
2022/11/07 06:18:14;;;;;;;1.55;0.10;;;9.80;73.10;;;;;;4881293;28;87490;-82
2022/11/07 06:20:40;;;;;;;1.85;0.20;;;9.80;73.20;;;;;;4885211;28;87287;-82
2022/11/07 06:23:06;;;;;;;1.23;0.10;;;9.70;73.40;;;;;;4884508;28;86628;-81
2022/11/07 06:25:32;;;;;;;1.23;0.10;;;9.80;79.90;;;;;;4876201;28;86652;-81
2022/11/07 06:28:00;;;;;;;1.00;0.10;;;9.90;76.10;;;;;;4875521;28;87784;-81
2022/11/07 06:30:26;;;;;;;0.70;0.10;;;9.90;74.10;;;;;;4884650;28;86005;-82
2022/11/07 06:32:51;;;;;;;0.88;0.10;;;10.00;73.20;;;;;;4874340;28;86667;-81
2022/11/07 06:35:17;;;;;;;0.75;0.10;;;10.10;74.50;;;;;;4883979;28;86420;-82
2022/11/07 06:37:43;;;;;;;1.15;0.10;;;10.30;71.70;;;;;;4883628;28;87637;-82
2022/11/07 06:40:09;;;;;;;1.15;0.10;;;10.40;71.50;;;;;;4883176;28;87777;-82
2022/11/07 06:42:35;;;;;;;2.88;0.10;;;10.50;70.90;;;;;;4896318;28;86405;-82
2022/11/07 06:45:00;;;;;;;0.70;0.10;;;10.60;70.60;;;;;;4887028;28;86543;-80
2022/11/07 06:47:26;;;;;;;1.25;0.22;;;10.70;70.10;;;;;;4884403;28;87775;-82
2022/11/07 06:49:52;;;;;;;0.88;0.10;;;10.90;68.90;;;;;;4884058;28;87459;-82
2022/11/07 06:52:17;;;;;;;1.58;0.10;;;11.30;68.40;;;;;;4885310;28;86631;-81
2022/11/07 06:54:43;;;;;;;2.25;0.10;;;12.40;65.30;;;;;;4885391;28;85453;-80
2022/11/07 06:57:09;;;;;;;1.15;0.20;;;13.80;62.40;;;;;;4884698;28;87797;-82
2022/11/07 06:59:35;;;;;;;1.98;0.20;;;15.30;59.00;;;;;;4884410;28;87003;-80
2022/11/07 07:02:01;;;;;;;1.27;0.40;;;16.60;56.50;;;;;;4884090;28;87811;-80
2022/11/07 07:04:26;;;;;;;1.45;0.20;;;17.90;53.30;;;;;;4886489;28;86274;-82
2022/11/07 07:06:52;;;;;;;0.88;0.20;;;18.90;50.80;;;;;;4891551;28;86535;-80
2022/11/07 07:09:18;;;;;;;1.30;0.20;;;19.10;49.50;;;;;;4884230;28;86483;-81
2022/11/07 07:11:44;;;;;;;2.35;0.20;;;18.60;49.50;;;;;;4884643;28;86579;-82
2022/11/07 07:14:10;;;;;;;0.68;0.20;;;18.00;50.20;;;;;;4884281;28;86302;-81
2022/11/07 07:16:36;;;;;;;1.08;0.30;;;17.80;51.10;;;;;;4884882;28;87775;-81
2022/11/07 07:19:02;;;;;;;0.88;0.20;;;17.80;50.30;;;;;;4884568;28;87345;-81
2022/11/07 07:21:28;;;;;;;1.83;0.20;;;17.90;51.10;;;;;;4884764;28;86307;-81
2022/11/07 07:23:54;;;;;;;1.13;0.30;;;18.30;50.10;;;;;;4884168;28;86416;-82
2022/11/07 07:26:19;;;;;;;0.98;0.35;;;19.40;48.70;;;;;;4883792;28;88904;-81
2022/11/07 07:28:45;;;;;;;1.88;0.30;;;20.00;47.10;;;;;;4884351;28;88192;-81
2022/11/07 07:31:14;;;;;;;1.35;0.10;;;20.00;45.80;;;;;;4887355;28;86657;-81
2022/11/07 07:33:45;;;;;;;4.20;0.20;;;19.70;44.30;;;;;;4887419;28;86666;-81
2022/11/07 07:36:11;;;;;;;0.60;0.10;;;19.40;45.30;;;;;;4888071;28;87463;-82
2022/11/07 07:38:37;;;;;;;0.80;0.17;;;19.00;45.70;;;;;;4887288;28;86484;-80
2022/11/07 07:41:03;;;;;;;0.38;0.13;;;18.60;46.20;;;;;;4887902;28;86990;-80
2022/11/07 07:43:29;;;;;;;0.95;0.22;;;18.20;46.00;;;;;;4888371;28;85787;-79
2022/11/07 07:46:06;;;;;;;0.45;0.20;;;18.30;46.30;;;;;;4879044;28;86542;-82
2022/11/07 07:48:32;;;;;;;1.35;0.10;;;18.40;47.10;;;;;;4872760;28;86820;-82
2022/11/07 07:50:58;;;;;;;0.73;0.10;;;18.20;47.00;;;;;;4888057;28;87062;-82
2022/11/07 07:53:24;;;;;;;0.47;0.20;;;17.40;47.00;;;;;;4888393;28;86277;-81
2022/11/07 07:55:54;;;;;;;0.63;0.15;;;17.40;47.60;;;;;;4888646;28;87092;-82
2022/11/07 07:58:20;;;;;;;1.73;0.10;;;17.50;47.20;;;;;;4888546;28;86103;-82
2022/11/07 08:00:45;;;;;;;0.88;0.10;;;17.30;48.40;;;;;;4903280;28;86171;-81
2022/11/07 08:03:12;;;;;;;0.70;0.15;;;17.30;48.60;;;;;;4894392;28;86508;-82
2022/11/07 08:05:38;;;;;;;1.95;0.10;;;17.30;48.20;;;;;;4888422;28;86636;-81
2022/11/07 08:08:05;;;;;;;0.80;0.20;;;17.80;48.30;;;;;;4889119;28;86965;-81
2022/11/07 08:10:32;;;;;;;1.02;0.22;;;18.80;47.00;;;;;;4888623;28;86142;-81
2022/11/07 08:12:57;;;;;;;0.70;0.20;;;20.00;44.50;;;;;;4888813;28;86293;-82
2022/11/07 08:15:23;;;;;;;2.45;0.20;;;21.10;42.40;;;;;;4888096;28;87643;-83
2022/11/07 08:17:49;;;;;;;1.73;0.52;;;22.30;41.10;;;;;;4888379;28;87580;-82
2022/11/07 08:20:18;;;;;;;3.10;0.32;;;23.50;39.60;;;;;;4888767;28;86294;-83
2022/11/07 08:22:44;;;;;;;;;;;24.50;38.80;;;;;;4888881;28;86161;-83
2022/11/07 08:25:10;;;;;;;2.00;0.40;;;25.10;36.00;;;;;;4890041;28;86845;-82
2022/11/07 08:27:37;;;;;;;1.33;0.85;;;26.10;36.90;;;;;;4869676;29;87092;-83
2022/11/07 08:30:05;;;;;;;2.42;0.60;;;26.80;35.60;;;;;;4869995;28;86823;-83
2022/11/07 08:32:31;;;;;;;2.10;0.68;;;27.00;36.00;;;;;;4888529;28;86121;-83
2022/11/07 08:34:56;;;;;;;2.15;0.45;;;26.70;34.90;;;;;;4888215;28;87246;-82
2022/11/07 08:37:22;;;;;;;1.52;0.63;;;26.40;35.70;;;;;;4887650;28;86707;-83
2022/11/07 08:39:48;;;;;;;3.42;0.70;;;26.90;35.60;;;;;;4886355;28;87233;-84
2022/11/07 08:42:14;;;;;;;3.85;0.40;;;27.70;34.40;;;;;;4887324;28;86203;-85
2022/11/07 08:44:40;;;;;;;2.13;0.63;;;28.40;34.10;;;;;;4885963;28;87745;-84
2022/11/07 08:47:06;;;;;;;2.15;0.52;;;29.10;33.30;;;;;;4885850;28;86679;-83
2022/11/07 08:49:32;;;;;;;1.20;0.40;;;28.30;34.10;;;;;;4869675;28;86163;-84
2022/11/07 08:51:59;;;;;;;1.70;0.63;;;27.10;34.50;;;;;;4887177;28;86245;-83
2022/11/07 08:54:25;;;;;;;1.48;1.23;;;26.10;34.60;;;;;;4887904;28;87020;-84
2022/11/07 08:56:51;;;;;;;1.58;0.35;;;25.30;36.10;;;;;;4886365;28;87247;-83
2022/11/07 08:59:17;;;;;;;1.73;0.38;;;24.50;36.90;;;;;;4886792;28;86631;-83
2022/11/07 09:01:42;;;;;;;2.63;0.30;;;23.70;37.90;;;;;;4885540;28;86343;-83
2022/11/07 09:04:08;;;;;;;5.60;0.30;;;23.00;38.50;;;;;;4884705;28;88381;-83
2022/11/07 09:06:34;;;;;;;5.63;0.52;;;22.20;38.80;;;;;;4883814;28;88181;-83
2022/11/07 09:09:00;;;;;;;1.38;0.30;;;21.70;40.60;;;;;;4886636;28;86305;-82
2022/11/07 09:11:26;;;;;;;3.45;0.60;;;21.30;41.10;;;;;;4885475;28;86271;-84
2022/11/07 09:13:53;;;;;;;3.25;0.50;;;21.20;42.00;;;;;;4885485;28;86659;-82
2022/11/07 09:16:20;;;;;;;2.05;0.22;;;21.00;42.00;;;;;;4884288;28;88634;-83
2022/11/07 09:18:47;;;;;;;1.15;0.20;;;20.80;43.20;;;;;;4886436;28;86335;-83
2022/11/07 09:21:14;;;;;;;0.70;0.22;;;20.40;42.80;;;;;;4873107;28;85852;-82
2022/11/07 09:23:39;;;;;;;1.70;0.10;;;19.80;44.30;;;;;;4885209;28;87292;-83
2022/11/07 09:26:06;;;;;;;1.85;0.20;;;19.60;45.40;;;;;;4886122;28;86252;-84
2022/11/07 09:28:32;;;;;;;2.33;0.30;;;19.70;45.00;;;;;;4886297;28;87832;-83
2022/11/07 09:30:59;;;;;;;1.70;0.30;;;20.50;43.80;;;;;;4890070;28;86272;-83
2022/11/07 09:33:26;;;;;;;2.45;0.20;;;21.50;41.70;;;;;;4880432;28;87375;-83
2022/11/07 09:35:52;;;;;;;1.77;0.20;;;22.40;41.00;;;;;;4883802;28;86132;-84
2022/11/07 09:38:18;;;;;;;1.77;0.20;;;22.90;38.30;;;;;;4886754;28;86264;-84
2022/11/07 09:40:48;;;;;;;1.83;0.20;;;23.80;38.10;;;;;;4885145;28;86910;-86
2022/11/07 09:43:32;;;;;;;1.05;0.35;;;23.60;37.00;;;;;;4882052;28;87291;-85
2022/11/07 09:46:26;;;;;;;1.73;0.30;;;23.70;37.90;;;;;;4877781;28;86939;-84
2022/11/07 09:49:03;;;;;;;1.65;0.30;;;23.60;36.80;;;;;;4880231;28;86970;-83
2022/11/07 09:51:37;;;;;;;1.00;0.20;;;23.30;36.90;;;;;;4886781;28;86742;-83
2022/11/07 09:54:14;;;;;;;1.05;0.35;;;23.50;38.00;;;;;;4884914;28;87482;-83
2022/11/07 09:56:42;;;;;;;3.50;0.40;;;24.10;36.60;;;;;;4886488;28;87938;-87
2022/11/07 09:59:19;;;;;;;1.20;0.30;;;24.10;36.40;;;;;;4886519;28;86692;-83
2022/11/07 10:01:44;;;;;;;1.08;0.47;;;23.80;35.90;;;;;;4884864;28;86553;-84
2022/11/07 10:04:20;;;;;;;0.77;0.30;;;23.90;36.80;;;;;;4886304;28;86732;-85
2022/11/07 10:06:59;;;;;;;4.70;0.28;;;24.00;37.30;;;;;;4885972;28;86927;-83
2022/11/07 10:09:33;;;;;;;0.75;0.20;;;23.50;38.10;;;;;;4885892;28;86849;-84
2022/11/07 10:12:05;;;;;;;2.30;0.50;;;23.60;36.20;;;;;;4885728;28;86097;-84
2022/11/07 10:14:39;;;;;;;1.38;0.40;;;23.60;37.30;;;;;;4884346;28;89532;-85
2022/11/07 10:17:27;;;;;;;0.73;0.30;;;23.70;36.90;;;;;;4885829;28;86375;-84
2022/11/07 10:20:09;;;;;;;1.52;0.20;;;23.20;38.10;;;;;;4885403;28;87288;-84
2022/11/07 10:23:00;;;;;;;1.02;0.20;;;22.30;39.50;;;;;;4880705;28;86211;-84
2022/11/07 10:25:40;;;;;;;2.67;0.20;;;21.60;39.90;;;;;;4885548;28;87455;-84
2022/11/07 10:28:11;;;;;;;1.17;0.20;;;21.00;41.10;;;;;;4877480;28;88261;-84
2022/11/07 10:30:37;;;;;;;3.25;0.13;;;20.40;42.60;;;;;;4875756;28;86562;-84
2022/11/07 10:33:10;;;;;;;3.17;0.22;;;20.00;43.10;;;;;;4885365;28;86890;-87
2022/11/07 10:35:41;;;;;;;1.67;0.13;;;19.70;44.80;;;;;;4885483;28;87968;-84
2022/11/07 10:38:31;;;;;;;0.70;0.20;;;19.30;45.10;;;;;;4885464;28;87180;-84
2022/11/07 10:40:56;;;;;;;1.20;0.30;;;19.10;44.70;;;;;;4872112;28;86168;-83
2022/11/07 10:43:39;;;;;;;2.83;0.40;;;18.80;46.10;;;;;;4885100;28;86313;-84
2022/11/07 10:46:24;;;;;;;;;;;18.90;45.70;;;;;;4876933;28;91664;-84
2022/11/07 10:48:56;;;;;;;3.58;0.22;;;19.00;47.30;;;;;;4886812;28;87563;-84
2022/11/07 10:51:38;;;;;;;2.15;0.25;;;18.90;45.70;;;;;;4884900;28;86276;-83
2022/11/07 10:54:05;;;;;;;1.35;0.10;;;18.60;47.00;;;;;;4884966;28;86421;-84
2022/11/07 10:57:03;;;;;;;2.50;0.10;;;18.50;46.50;;;;;;4884316;28;87261;-84
2022/11/07 10:59:31;;;;;;;0.47;0.20;;;18.50;47.00;;;;;;4881203;28;89086;-84
2022/11/07 11:01:58;;;;;;;0.82;0.20;;;18.30;48.20;;;;;;4877862;28;86211;-84
2022/11/07 11:04:31;;;;;;;0.85;0.13;;;18.20;47.60;;;;;;4884331;28;85559;-84
2022/11/07 11:07:00;;;;;;;0.82;0.17;;;18.10;48.70;;;;;;4888111;28;86917;-84
2022/11/07 11:09:31;;;;;;;2.13;0.13;;;18.00;49.20;;;;;;4887299;28;87383;-84
2022/11/07 11:11:57;;;;;;;0.80;0.10;;;17.90;49.00;;;;;;4880194;28;88069;-86
2022/11/07 11:14:22;;;;;;;2.35;0.13;;;17.70;49.50;;;;;;4881148;28;86872;-84
2022/11/07 11:16:54;;;;;;;0.80;0.13;;;17.70;49.60;;;;;;4886223;28;87407;-82
2022/11/07 11:19:29;;;;;;;0.68;0.17;;;17.60;50.70;;;;;;4886786;28;87378;-85
2022/11/07 11:21:57;;;;;;;1.00;0.13;;;17.50;51.00;;;;;;4880349;28;86346;-83
2022/11/07 11:24:28;;;;;;;0.63;0.20;;;17.50;50.60;;;;;;4888200;28;86304;-82
2022/11/07 11:26:58;;;;;;;1.83;0.20;;;17.50;50.00;;;;;;4883856;28;87777;-82
2022/11/07 11:29:55;;;;;;;2.83;0.17;;;17.60;50.00;;;;;;4885751;28;87090;-83
2022/11/07 11:32:32;;;;;;;1.02;0.20;;;17.70;49.90;;;;;;4886189;28;86424;-83
2022/11/07 11:35:13;;;;;;;0.57;0.10;;;17.60;49.10;;;;;;4878616;28;87741;-84
2022/11/07 11:37:41;;;;;;;0.45;0.10;;;17.60;48.90;;;;;;4885513;28;88162;-84
2022/11/07 11:40:21;;;;;;;1.50;0.10;;;17.50;49.00;;;;;;4885789;28;87291;-83
2022/11/07 11:42:54;;;;;;;0.28;0.05;;;17.50;49.80;;;;;;4899271;28;86771;-84
2022/11/07 11:45:41;;;;;;;1.67;0.10;;;17.50;49.10;;;;;;4884234;28;86763;-84
2022/11/07 11:48:40;;;;;;;0.93;0.10;;;17.40;49.00;;;;;;4882075;28;86854;-83
2022/11/07 11:51:24;;;;;;;0.68;0.30;;;17.40;51.20;;;;;;4885935;28;87110;-85
2022/11/07 11:53:50;;;;;;;0.50;0.05;;;17.30;50.80;;;;;;4881493;28;86309;-84
2022/11/07 11:56:22;;;;;;;1.75;0.10;;;17.20;49.60;;;;;;4884856;28;85599;-85
2022/11/07 11:59:16;;;;;;;2.55;0.10;;;17.10;49.70;;;;;;4885793;28;88325;-84
2022/11/07 12:02:24;;;;;;;1.73;0.10;;;17.10;49.90;;;;;;4867564;28;86581;-88
2022/11/07 12:04:57;;;;;;;0.82;0.10;;;17.00;49.70;;;;;;4880281;28;88123;-85
2022/11/07 12:07:41;;;;;;;2.25;0.25;;;17.00;50.20;;;;;;4876864;28;87008;-86
2022/11/07 12:10:34;;;;;;;2.70;0.17;;;17.00;51.00;;;;;;4880243;28;87628;-87
2022/11/07 12:13:02;;;;;;;9.10;0.10;;;17.00;51.10;;;;;;4875436;28;86737;-87
2022/11/07 12:15:37;;;;;;;0.95;0.10;;;17.00;50.50;;;;;;4879630;28;86312;-86
2022/11/07 12:18:22;;;;;;;1.70;0.10;;;16.90;50.80;;;;;;4878857;28;86439;-84
2022/11/07 12:21:31;;;;;;;5.43;0.60;;;16.90;51.30;;;;;;4877148;28;87793;-84
2022/11/07 12:24:22;;;;;;;1.23;0.05;;;17.00;53.60;;;;;;4882621;28;87090;-85
2022/11/07 12:27:12;;;;;;;140.80;7.13;;;16.90;50.20;;;;;;4886741;28;86573;-83
2022/11/07 12:29:53;;;;;;;11.38;0.30;;;16.80;50.70;;;;;;4866585;28;87195;-82
2022/11/07 12:32:37;;;;;;;2.53;0.10;;;16.70;51.00;;;;;;4889736;28;88964;-82
2022/11/07 12:35:22;;;;;;;2.90;0.10;;;16.80;51.20;;;;;;4886981;28;87633;-82
2022/11/07 12:38:03;;;;;;;1.55;0.10;;;16.80;52.10;;;;;;4886629;28;87166;-82
2022/11/07 12:40:42;;;;;;;1.08;0.10;;;16.70;53.00;;;;;;4886998;28;86272;-83
2022/11/07 12:43:28;;;;;;;1.85;0.20;;;16.80;52.70;;;;;;4886776;28;88424;-82
2022/11/07 12:46:15;;;;;;;16.95;0.43;;;16.80;52.00;;;;;;4886641;28;86996;-82
2022/11/07 12:49:16;;;;;;;20.05;0.98;;;16.80;52.10;;;;;;4877833;28;86309;-82
2022/11/07 12:51:57;;;;;;;20.67;0.52;;;16.80;52.10;;;;;;4886658;28;85448;-82
2022/11/07 12:54:43;;;;;;;2.70;0.10;;;16.80;52.40;;;;;;4886726;28;87738;-83
2022/11/07 12:57:14;;;;;;;2.78;0.00;;;16.80;52.60;;;;;;4886536;28;86769;-82
2022/11/07 12:59:46;;;;;;;1.02;0.20;;;16.90;52.20;;;;;;4886624;28;87127;-83
2022/11/07 13:02:17;;;;;;;17.25;0.40;;;16.90;52.50;;;;;;4886875;28;86589;-82
2022/11/07 13:05:02;;;;;;;1.60;0.20;;;16.90;52.90;;;;;;4886419;28;87689;-82
2022/11/07 13:07:47;;;;;;;1.13;0.10;;;17.00;52.50;;;;;;4870692;28;87321;-82
2022/11/07 13:10:23;;;;;;;8.57;0.20;;;17.00;51.80;;;;;;4886803;28;86169;-82
2022/11/07 13:12:59;;;;;;;2.58;0.10;;;17.00;52.10;;;;;;4886387;28;86210;-82
2022/11/07 13:15:25;;;;;;;5.03;0.10;;;17.00;51.90;;;;;;4885666;28;87160;-82
2022/11/07 13:17:51;;;;;;;0.80;0.10;;;17.00;52.60;;;;;;4885082;28;87280;-82
2022/11/07 13:20:20;;;;;;;3.38;0.20;;;16.90;52.40;;;;;;4882685;28;86587;-82
2022/11/07 13:22:50;;;;;;;4.63;0.13;;;16.80;52.20;;;;;;4877903;28;86727;-82
2022/11/07 13:25:16;;;;;;;3.28;0.10;;;16.80;53.60;;;;;;4885692;28;87955;-83
2022/11/07 13:27:57;;;;;;;5.25;0.20;;;16.70;53.00;;;;;;4884969;28;87151;-82
2022/11/07 13:30:29;;;;;;;3.58;0.10;;;16.70;51.70;;;;;;4885148;28;86238;-82
2022/11/07 13:32:55;;;;;;;4.78;0.10;;;16.60;51.90;;;;;;4885816;28;87230;-82
2022/11/07 13:35:27;;;;;;;1.65;0.10;;;16.60;52.10;;;;;;4885317;28;87445;-81
2022/11/07 13:37:57;;;;;;;1.48;0.20;;;16.50;52.60;;;;;;4886174;28;87251;-83
2022/11/07 13:40:49;;;;;;;1.10;0.10;;;16.40;52.80;;;;;;4886188;28;86308;-82
2022/11/07 13:43:22;;;;;;;2.17;0.10;;;16.40;53.10;;;;;;4886969;28;85986;-82
2022/11/07 13:45:48;;;;;;;0.98;0.10;;;16.30;52.80;;;;;;4886229;28;86503;-84
2022/11/07 13:48:21;;;;;;;1.52;0.10;;;16.30;52.70;;;;;;4885319;28;86540;-82
2022/11/07 13:51:11;;;;;;;2.08;0.10;;;16.40;52.80;;;;;;4884525;28;87143;-82
2022/11/07 13:53:55;;;;;;;1.60;0.10;;;16.30;53.60;;;;;;4876191;28;86701;-82
2022/11/07 13:56:28;;;;;;;4.70;0.20;;;16.30;54.90;;;;;;4886223;28;87702;-83
2022/11/07 13:58:54;;;;;;;2.08;0.10;;;16.20;55.70;;;;;;4885919;28;86976;-83
2022/11/07 14:01:20;;;;;;;2.80;0.20;;;16.20;56.40;;;;;;4885594;28;86964;-84
2022/11/07 14:03:46;;;;;;;3.72;0.63;;;16.10;57.00;;;;;;4885350;28;86248;-83
2022/11/07 14:06:13;;;;;;;2.72;0.10;;;16.10;56.50;;;;;;4885176;28;87651;-83
2022/11/07 14:08:44;;;;;;;4.45;0.40;;;16.10;56.10;;;;;;4885815;28;86620;-82
2022/11/07 14:11:18;;;;;;;2.72;0.10;;;16.10;56.80;;;;;;4883179;28;86585;-82
2022/11/07 14:13:48;;;;;;;2.33;0.28;;;16.10;55.60;;;;;;4885350;28;86256;-83
2022/11/07 14:16:17;;;;;;;2.13;0.20;;;16.10;56.20;;;;;;4888614;28;91795;-82
2022/11/07 14:18:50;;;;;;;4.93;0.10;;;16.00;55.70;;;;;;4866859;29;88282;-82
2022/11/07 14:21:31;;;;;;;2.83;0.20;;;16.00;55.10;;;;;;4880636;28;86897;-82
2022/11/07 14:23:57;;;;;;;1.75;0.10;;;16.00;55.50;;;;;;4885490;28;86940;-83
2022/11/07 14:26:29;;;;;;;1.00;0.10;;;16.00;55.40;;;;;;4885640;28;87912;-83
2022/11/07 14:28:56;;;;;;;1.10;0.10;;;16.00;54.80;;;;;;4885157;28;87450;-82
2022/11/07 14:31:35;;;;;;;3.28;0.13;;;16.00;54.80;;;;;;4885468;28;86423;-82
2022/11/07 14:34:14;;;;;;;3.28;0.20;;;15.90;54.60;;;;;;4885842;28;86638;-82
2022/11/07 14:36:47;;;;;;;1.02;0.10;;;16.00;54.70;;;;;;4884771;28;87691;-83
2022/11/07 14:39:14;;;;;;;0.65;0.10;;;15.90;55.00;;;;;;4883747;28;87394;-83
2022/11/07 14:41:41;;;;;;;0.65;0.15;;;15.90;55.00;;;;;;4884188;28;87190;-83
2022/11/07 14:44:16;;;;;;;7.72;2.63;;;15.80;55.60;;;;;;4883785;28;86421;-82
2022/11/07 14:46:43;;;;;;;7.10;3.47;;;15.80;55.80;;;;;;4885135;28;87585;-82
2022/11/07 14:49:42;;;;;;;4.10;1.23;;;15.70;58.80;;;;;;4880822;28;87814;-83
2022/11/07 14:52:21;;;;;;;73.30;30.25;;;15.50;59.30;;;;;;4875569;28;86480;-83
2022/11/07 14:54:54;;;;;;;242.98;91.18;;;15.40;60.30;;;;;;4878086;28;86257;-82
2022/11/07 14:57:20;;;;;;;346.05;119.45;;;15.30;61.30;;;;;;4882813;28;87118;-83
2022/11/07 14:59:46;;;;;;;426.00;124.25;;;15.20;61.50;;;;;;4884047;28;87477;-83
2022/11/07 15:02:11;;;;;;;122.03;36.50;;;15.10;61.80;;;;;;4883982;28;86847;-82
2022/11/07 15:04:43;;;;;;;111.68;46.70;;;15.10;62.60;;;;;;4883385;28;86601;-82
2022/11/07 15:07:25;;;;;;;65.97;27.95;;;15.00;62.30;;;;;;4883978;28;88552;-82
2022/11/07 15:09:53;;;;;;;42.40;17.83;;;15.00;62.60;;;;;;4884686;28;88115;-83
2022/11/07 15:12:33;;;;;;;7.50;1.70;;;14.90;62.40;;;;;;4884292;28;86612;-82
2022/11/07 15:15:11;;;;;;;16.10;7.10;;;14.80;63.70;;;;;;4884753;28;86809;-81
2022/11/07 15:17:45;;;;;;;5.80;2.83;;;14.70;64.20;;;;;;4884350;28;87964;-84
2022/11/07 15:20:29;;;;;;;9.10;3.13;;;14.60;64.60;;;;;;4885489;28;86592;-83
2022/11/07 15:22:56;;;;;;;5.13;1.80;;;14.50;65.30;;;;;;4876786;28;86145;-82
2022/11/07 15:25:38;;;;;;;4.07;0.50;;;14.40;65.70;;;;;;4884805;28;86212;-83
2022/11/07 15:28:27;;;;;;;3.15;0.77;;;14.30;66.50;;;;;;4877903;28;87484;-82
2022/11/07 15:30:58;;;;;;;2.35;0.60;;;14.20;66.40;;;;;;4855766;29;88450;-83
2022/11/07 15:33:25;;;;;;;2.83;0.75;;;14.10;66.40;;;;;;4869399;28;87824;-82
2022/11/07 15:35:55;;;;;;;3.38;0.80;;;14.00;66.90;;;;;;4884624;28;86649;-83
2022/11/07 15:38:24;;;;;;;2.55;0.52;;;14.00;67.50;;;;;;4892322;28;88051;-82
2022/11/07 15:40:50;;;;;;;5.63;0.88;;;13.80;68.60;;;;;;4885343;28;87386;-82
2022/11/07 15:43:17;;;;;;;4.80;0.80;;;13.70;68.40;;;;;;4882387;28;86250;-82
2022/11/07 15:45:43;;;;;;;3.08;0.93;;;13.70;68.90;;;;;;4874137;28;86847;-82
2022/11/07 15:48:21;;;;;;;5.43;0.77;;;13.50;69.40;;;;;;4881587;28;87482;-84
2022/11/07 15:50:48;;;;;;;4.75;1.00;;;13.40;69.90;;;;;;4883736;28;88448;-82
2022/11/07 15:53:15;;;;;;;8.85;1.10;;;13.30;70.50;;;;;;4890797;28;86792;-82
2022/11/07 15:55:41;;;;;;;5.00;0.93;;;13.20;74.70;;;;;;4896984;28;86250;-84
2022/11/07 15:58:11;;;;;;;5.25;0.80;;;13.20;73.30;;;;;;4886729;28;88796;-86
2022/11/07 16:00:36;;;;;;;5.57;1.00;;;13.10;72.50;;;;;;4887375;28;88332;-83
2022/11/07 16:03:02;;;;;;;5.93;1.10;;;13.00;72.50;;;;;;4885911;28;86434;-82
2022/11/07 16:05:28;;;;;;;4.28;1.02;;;12.90;72.90;;;;;;4887200;28;86365;-82
2022/11/07 16:07:53;;;;;;;5.93;0.60;;;12.80;72.70;;;;;;4887543;28;86721;-83
2022/11/07 16:10:22;;;;;;;3.38;0.70;;;12.80;73.00;;;;;;4887765;28;87176;-85
2022/11/07 16:12:49;;;;;;;4.72;0.65;;;12.70;73.20;;;;;;4887185;28;86208;-82
2022/11/07 16:15:16;;;;;;;3.10;0.45;;;12.60;73.50;;;;;;4885642;28;86103;-83
2022/11/07 16:17:42;;;;;;;3.28;0.77;;;12.50;73.70;;;;;;4887332;28;87158;-84
2022/11/07 16:20:14;;;;;;;3.58;0.70;;;12.40;73.90;;;;;;4887404;28;87006;-83
2022/11/07 16:22:40;;;;;;;3.85;0.80;;;12.30;74.90;;;;;;4886497;28;87277;-84
2022/11/07 16:25:08;;;;;;;4.32;0.93;;;12.20;74.80;;;;;;4887397;28;86414;-83
2022/11/07 16:27:36;;;;;;;3.58;1.15;;;12.20;76.70;;;;;;4881403;28;87463;-80
2022/11/07 16:30:02;;;;;;;4.28;1.15;;;12.10;77.80;;;;;;4884863;28;86261;-80
2022/11/07 16:32:27;;;;;;;4.57;1.50;;;12.00;77.60;;;;;;4885664;28;87505;-81
2022/11/07 16:34:53;;;;;;;8.60;1.30;;;11.90;78.30;;;;;;4886957;28;86714;-81
2022/11/07 16:37:18;;;;;;;7.57;2.50;;;11.90;77.60;;;;;;4886613;28;87072;-79
2022/11/07 16:39:44;;;;;;;9.40;3.05;;;11.90;77.90;;;;;;4887916;28;86340;-79
2022/11/07 16:42:15;;;;;;;10.77;3.53;;;11.80;77.50;;;;;;4887243;28;86326;-79
2022/11/07 16:44:40;;;;;;;9.45;3.63;;;11.80;77.50;;;;;;4868685;29;86633;-78
2022/11/07 16:47:12;;;;;;;14.95;5.38;;;11.80;78.10;;;;;;4880180;28;88111;-79
2022/11/07 16:49:38;;;;;;;23.25;7.45;;;11.70;78.20;;;;;;4887431;28;88037;-79
2022/11/07 16:52:04;;;;;;;14.85;4.70;;;11.70;78.40;;;;;;4886869;28;86665;-79
2022/11/07 16:54:29;;;;;;;12.95;3.65;;;11.60;78.60;;;;;;4886825;28;86648;-79
2022/11/07 16:56:56;;;;;;;23.25;7.72;;;11.60;78.80;;;;;;4876193;28;86599;-80
2022/11/07 16:59:23;;;;;;;69.93;26.98;;;11.50;79.50;;;;;;4868182;28;86925;-78
2022/11/07 17:01:50;;;;;;;31.77;10.65;;;11.50;80.50;;;;;;4867775;28;86263;-79